createdAt,value
2022-09-14T00:02:05.005Z,98830.66
2022-09-14T00:05:06.798Z,98836.53
2022-09-14T00:08:08.480Z,98844.34
2022-09-14T00:11:14.910Z,98831.28
2022-09-14T00:14:17.195Z,98839.56
2022-09-14T00:17:18.848Z,98838.09
2022-09-14T00:20:20.312Z,98833.41
2022-09-14T00:23:21.702Z,98842.38
2022-09-14T00:26:23.722Z,98842.59
2022-09-14T00:29:25.236Z,98837.09
2022-09-14T00:32:26.681Z,98880.88
2022-09-14T00:35:28.236Z,98937.56
2022-09-14T00:38:29.662Z,98951.69
2022-09-14T00:41:34.845Z,98932.69
2022-09-14T00:44:36.305Z,98920.69
2022-09-14T00:47:37.768Z,98912.09
2022-09-14T00:50:39.374Z,98888.09
2022-09-14T00:53:41.156Z,98880.44
2022-09-14T00:56:42.710Z,98881.19
2022-09-14T00:59:46.435Z,98872.00
2022-09-14T01:02:48.004Z,98860.09
2022-09-14T01:06:23.350Z,98847.44
2022-09-14T01:09:53.273Z,98839.00
2022-09-14T01:13:22.957Z,98827.25
2022-09-14T01:16:35.027Z,98822.41
2022-09-14T01:20:03.860Z,98827.59
2022-09-14T01:23:14.527Z,98819.88
2022-09-14T01:26:58.650Z,98824.44
2022-09-14T01:30:18.964Z,98819.09
2022-09-14T01:33:37.396Z,98838.16
2022-09-14T01:36:42.745Z,98841.69
2022-09-14T01:39:49.928Z,98831.00
2022-09-14T01:42:57.617Z,98834.78
2022-09-14T01:46:10.915Z,98852.59
2022-09-14T01:49:21.693Z,98855.97
2022-09-14T01:52:33.491Z,98850.97
2022-09-14T01:55:43.785Z,98843.09
2022-09-14T01:58:50.191Z,98851.41
2022-09-14T02:02:19.859Z,98862.81
2022-09-14T02:05:33.181Z,98866.69
2022-09-14T02:08:35.306Z,98877.50
2022-09-14T02:11:38.032Z,98879.44
2022-09-14T02:14:39.527Z,98869.94
2022-09-14T02:17:41.540Z,98853.84
2022-09-14T02:20:46.431Z,98844.56
2022-09-14T02:23:49.103Z,98851.50
2022-09-14T02:26:51.899Z,98851.09
2022-09-14T02:29:53.785Z,98840.09
2022-09-14T02:33:14.566Z,98826.16
2022-09-14T02:36:35.384Z,98820.34
2022-09-14T02:40:07.472Z,98811.28
2022-09-14T02:43:32.859Z,98823.41
2022-09-14T02:46:52.629Z,98823.75
2022-09-14T02:50:00.280Z,98835.13
2022-09-14T02:53:06.934Z,98824.69
2022-09-14T02:56:11.041Z,98813.03
2022-09-14T02:59:12.769Z,98823.88
2022-09-14T03:02:14.323Z,98800.59
2022-09-14T03:05:15.859Z,98800.31
2022-09-14T03:08:17.318Z,98795.94
2022-09-14T03:11:18.775Z,98789.25
2022-09-14T03:14:20.209Z,98783.41
2022-09-14T03:17:21.622Z,98770.34
2022-09-14T03:20:29.098Z,98772.84
2022-09-14T03:23:30.620Z,98767.56
2022-09-14T03:26:36.685Z,98767.25
2022-09-14T03:29:38.150Z,98773.34
2022-09-14T03:32:39.749Z,98767.41
2022-09-14T03:35:41.154Z,98767.41
2022-09-14T03:38:47.753Z,98763.78
2022-09-14T03:41:49.162Z,98763.53
2022-09-14T03:44:50.565Z,98772.22
2022-09-14T03:47:51.968Z,98789.44
2022-09-14T03:50:53.383Z,98776.38
2022-09-14T03:53:55.761Z,98768.16
2022-09-14T03:56:57.155Z,98770.69
2022-09-14T03:59:58.909Z,98778.03
2022-09-14T04:03:00.599Z,98779.63
2022-09-14T04:06:05.298Z,98782.09
2022-09-14T04:09:06.755Z,98776.13
2022-09-14T04:12:08.511Z,98760.97
2022-09-14T04:15:10.103Z,98759.19
2022-09-14T04:18:12.205Z,98745.47
2022-09-14T04:21:19.292Z,98762.88
2022-09-14T04:24:21.055Z,98765.03
2022-09-14T04:27:23.173Z,98768.16
2022-09-14T04:30:24.592Z,98767.09
2022-09-14T04:33:29.584Z,98764.44
2022-09-14T04:36:31.549Z,98773.13
2022-09-14T04:39:33.154Z,98771.44
2022-09-14T04:42:34.557Z,98774.81
2022-09-14T04:45:37.003Z,98783.75
2022-09-14T04:48:38.858Z,98786.59
2022-09-14T04:51:40.184Z,98787.63
2022-09-14T04:54:41.594Z,98799.31
2022-09-14T04:57:43.005Z,98800.44
2022-09-14T05:00:44.402Z,98792.34
2022-09-14T05:03:46.581Z,98772.72
2022-09-14T05:06:48.028Z,98767.41
2022-09-14T05:09:49.438Z,98766.25
2022-09-14T05:12:50.901Z,98768.91
2022-09-14T05:15:52.387Z,98770.28
2022-09-14T05:18:56.074Z,98765.94
2022-09-14T05:21:57.482Z,98766.38
2022-09-14T05:24:58.929Z,98765.13
2022-09-14T05:28:00.374Z,98772.63
2022-09-14T05:31:06.876Z,98772.53
2022-09-14T05:34:10.165Z,98773.81
2022-09-14T05:37:12.737Z,98780.13
2022-09-14T05:40:14.324Z,98783.94
2022-09-14T05:43:15.747Z,98788.09
2022-09-14T05:46:22.122Z,98781.72
2022-09-14T05:49:25.194Z,98782.78
2022-09-14T05:52:29.373Z,98787.53
2022-09-14T05:55:30.919Z,98788.47
2022-09-14T05:58:32.728Z,98789.81
2022-09-14T06:01:34.188Z,98784.50
2022-09-14T06:04:36.170Z,98780.09
2022-09-14T06:07:37.586Z,98783.63
2022-09-14T06:10:39.051Z,98778.50
2022-09-14T06:13:41.122Z,98781.25
2022-09-14T06:16:42.524Z,98783.53
2022-09-14T06:19:43.991Z,98790.28
2022-09-14T06:22:45.608Z,98778.69
2022-09-14T06:25:47.041Z,98774.47
2022-09-14T06:28:49.414Z,98779.63
2022-09-14T06:31:50.836Z,98762.56
2022-09-14T06:34:52.230Z,98776.78
2022-09-14T06:37:54.538Z,98777.41
2022-09-14T06:40:57.710Z,98775.81
2022-09-14T06:44:01.605Z,98778.84
2022-09-14T06:47:03.261Z,98776.38
2022-09-14T06:50:05.207Z,98773.03
2022-09-14T06:53:06.537Z,98778.94
2022-09-14T06:56:08.096Z,98773.72
2022-09-14T06:59:12.542Z,98775.69
2022-09-14T07:02:14.118Z,98785.53
2022-09-14T07:05:15.647Z,98785.50
2022-09-14T07:08:17.029Z,98794.00
2022-09-14T07:11:21.006Z,98783.56
2022-09-14T07:14:22.615Z,98791.63
2022-09-14T07:17:24.024Z,98781.63
2022-09-14T07:20:25.465Z,98776.84
2022-09-14T07:23:26.881Z,98776.63
2022-09-14T07:26:35.265Z,98799.94
2022-09-14T07:29:36.660Z,98806.75
2022-09-14T07:32:38.353Z,98807.84
2022-09-14T07:35:40.048Z,98808.88
2022-09-14T07:38:52.557Z,98819.53
2022-09-14T07:41:55.451Z,98822.19
2022-09-14T07:44:57.574Z,98830.13
2022-09-14T07:48:03.160Z,98838.66
2022-09-14T07:51:07.644Z,98844.84
2022-09-14T07:54:12.403Z,98843.13
2022-09-14T07:57:14.660Z,98851.41
2022-09-14T08:00:16.501Z,98853.81
2022-09-14T08:03:18.312Z,98852.97
2022-09-14T08:06:24.282Z,98852.78
2022-09-14T08:09:26.594Z,98866.44
2022-09-14T08:12:28.836Z,98861.66
2022-09-14T08:15:31.770Z,98844.06
2022-09-14T08:18:35.170Z,98838.19
2022-09-14T08:21:37.073Z,98837.88
2022-09-14T08:24:38.636Z,98835.75
2022-09-14T08:27:40.121Z,98839.84
2022-09-14T08:30:41.546Z,98857.06
2022-09-14T08:33:45.331Z,98855.31
2022-09-14T08:36:47.339Z,98866.06
2022-09-14T08:39:51.643Z,98866.25
2022-09-14T08:42:58.647Z,98868.28
2022-09-14T08:46:04.628Z,98876.72
2022-09-14T08:49:18.842Z,98875.94
2022-09-14T08:52:32.344Z,98879.31
2022-09-14T08:55:41.250Z,98874.81
2022-09-14T08:59:07.929Z,98866.53
2022-09-14T09:02:40.609Z,98869.16
2022-09-14T09:05:53.559Z,98847.28
2022-09-14T09:09:23.984Z,98853.00
2022-09-14T09:12:28.032Z,98850.03
2022-09-14T09:15:32.286Z,98837.91
2022-09-14T09:18:47.985Z,98826.44
2022-09-14T09:21:50.448Z,98819.78
2022-09-14T09:24:55.364Z,98813.13
2022-09-14T09:28:09.719Z,98815.53
2022-09-14T09:31:15.005Z,98810.72
2022-09-14T09:34:36.110Z,98815.50
2022-09-14T09:37:57.910Z,98811.75
2022-09-14T09:41:02.279Z,98798.69
2022-09-14T09:44:11.135Z,98790.63
2022-09-14T09:47:12.879Z,98783.16
2022-09-14T09:50:14.524Z,98770.25
2022-09-14T09:53:18.558Z,98779.34
2022-09-14T09:56:31.928Z,98764.91
2022-09-14T09:59:42.350Z,98757.41
2022-09-14T10:02:44.115Z,98742.41
2022-09-14T10:05:45.445Z,98736.00
2022-09-14T10:08:47.476Z,98730.53
2022-09-14T10:11:58.395Z,98720.38
2022-09-14T10:15:17.450Z,98715.53
2022-09-14T10:18:28.325Z,98714.91
2022-09-14T10:21:31.320Z,98713.94
2022-09-14T10:24:35.937Z,98708.25
2022-09-14T10:27:46.124Z,98714.09
2022-09-14T10:30:53.381Z,98702.16
2022-09-14T10:33:57.665Z,98703.53
2022-09-14T10:37:36.172Z,98694.13
2022-09-14T10:40:43.904Z,98698.97
2022-09-14T10:44:43.185Z,98709.00
2022-09-14T10:48:02.594Z,98721.66
2022-09-14T10:51:20.551Z,98720.25
2022-09-14T10:54:31.612Z,98709.63
2022-09-14T10:57:54.121Z,98699.81
2022-09-14T11:01:14.316Z,98691.88
2022-09-14T11:04:34.835Z,98682.59
2022-09-14T11:08:30.328Z,98686.69
2022-09-14T11:11:58.968Z,98684.59
2022-09-14T11:15:32.145Z,98676.59
2022-09-14T11:18:48.421Z,98681.16
2022-09-14T11:22:19.581Z,98700.91
2022-09-14T11:25:33.114Z,98746.50
2022-09-14T11:28:41.258Z,98772.53
2022-09-14T11:32:16.798Z,98820.94
2022-09-14T11:35:29.514Z,98825.25
2022-09-14T11:38:47.630Z,98815.53
2022-09-14T11:41:51.525Z,98813.38
2022-09-14T11:45:13.814Z,98806.00
2022-09-14T11:48:43.958Z,98808.31
2022-09-14T11:52:07.673Z,98803.06
2022-09-14T11:55:15.355Z,98816.56
2022-09-14T11:58:29.675Z,98832.97
2022-09-14T12:01:38.453Z,98846.31
2022-09-14T12:05:05.828Z,98845.34
2022-09-14T12:08:30.604Z,98854.53
2022-09-14T12:11:35.234Z,98865.69
2022-09-14T12:14:40.502Z,98874.88
2022-09-14T12:17:42.574Z,98874.25
2022-09-14T12:20:46.795Z,98887.78
2022-09-14T12:23:52.237Z,98895.38
2022-09-14T12:26:54.276Z,98906.75
2022-09-14T12:29:55.688Z,98922.28
2022-09-14T12:32:57.112Z,98938.94
2022-09-14T12:36:01.196Z,98944.78
2022-09-14T12:39:02.553Z,98941.66
2022-09-14T12:42:25.491Z,98933.69
2022-09-14T12:45:59.858Z,98929.41
2022-09-14T12:49:04.233Z,98936.19
2022-09-14T12:52:20.259Z,98922.41
2022-09-14T12:55:42.727Z,98923.84
2022-09-14T12:58:56.604Z,98907.16
2022-09-14T13:02:34.125Z,98909.16
2022-09-14T13:05:35.753Z,98906.81
2022-09-14T13:08:37.234Z,98899.09
2022-09-14T13:11:41.234Z,98883.72
2022-09-14T13:14:53.777Z,98875.94
2022-09-14T13:18:03.853Z,98878.19
2022-09-14T13:21:20.988Z,98889.53
2022-09-14T13:24:29.426Z,98880.81
2022-09-14T13:27:38.022Z,98877.75
2022-09-14T13:30:41.803Z,98880.13
2022-09-14T13:33:51.740Z,98871.03
2022-09-14T13:36:55.661Z,98868.34
2022-09-14T13:39:58.365Z,98864.41
2022-09-14T13:43:00.261Z,98868.91
2022-09-14T13:46:05.059Z,98871.66
2022-09-14T13:49:07.575Z,98864.41
2022-09-14T13:52:31.056Z,98869.25
2022-09-14T13:55:45.108Z,98887.22
2022-09-14T13:58:48.505Z,98867.78
2022-09-14T14:01:53.793Z,98864.47
2022-09-14T14:04:55.367Z,98853.38
2022-09-14T14:07:59.271Z,98854.53
2022-09-14T14:11:02.696Z,98845.19
2022-09-14T14:14:16.288Z,98852.66
2022-09-14T14:17:25.237Z,98845.03
2022-09-14T14:20:26.800Z,98838.75
2022-09-14T14:23:28.714Z,98834.56
2022-09-14T14:26:30.131Z,98830.19
2022-09-14T14:29:31.625Z,98821.88
2022-09-14T14:32:33.455Z,98827.69
2022-09-14T14:35:34.851Z,98819.03
2022-09-14T14:38:36.518Z,98806.88
2022-09-14T14:41:38.019Z,98795.25
2022-09-14T14:44:39.689Z,98795.00
2022-09-14T14:47:41.338Z,98780.09
2022-09-14T14:50:42.757Z,98765.31
2022-09-14T14:53:44.669Z,98768.06
2022-09-14T14:56:47.336Z,98766.53
2022-09-14T14:59:52.705Z,98757.50
2022-09-14T15:02:54.201Z,98758.69
2022-09-14T15:05:55.595Z,98752.66
2022-09-14T15:08:57.014Z,98746.31
2022-09-14T15:11:58.428Z,98744.19
2022-09-14T15:15:00.452Z,98732.91
2022-09-14T15:18:01.931Z,98721.41
2022-09-14T15:21:03.429Z,98713.84
2022-09-14T15:24:05.366Z,98711.75
2022-09-14T15:27:06.751Z,98709.50
2022-09-14T15:30:10.214Z,98700.75
2022-09-14T15:33:11.669Z,98698.84
2022-09-14T15:36:13.248Z,98689.53
2022-09-14T15:39:14.837Z,98683.94
2022-09-14T15:42:19.463Z,98683.72
2022-09-14T15:45:20.962Z,98684.28
2022-09-14T15:48:22.417Z,98675.69
2022-09-14T15:51:23.922Z,98671.25
2022-09-14T15:54:30.761Z,98669.22
2022-09-14T15:57:32.622Z,98679.97
2022-09-14T16:00:34.841Z,98682.03
2022-09-14T16:03:36.457Z,98672.81
2022-09-14T16:06:38.373Z,98682.78
2022-09-14T16:09:41.120Z,98680.91
2022-09-14T16:12:42.513Z,98692.69
2022-09-14T16:15:44.089Z,98698.09
2022-09-14T16:18:46.023Z,98686.47
2022-09-14T16:21:50.398Z,98688.25
2022-09-14T16:24:54.950Z,98694.06
2022-09-14T16:27:56.365Z,98702.75
2022-09-14T16:31:08.185Z,98711.41
2022-09-14T16:34:21.885Z,98704.47
2022-09-14T16:37:23.281Z,98700.63
2022-09-14T16:40:25.393Z,98711.31
2022-09-14T16:43:27.802Z,98711.88
2022-09-14T16:46:30.929Z,98708.59
2022-09-14T16:49:32.482Z,98708.06
2022-09-14T16:52:33.883Z,98706.59
2022-09-14T16:55:35.579Z,98709.34
2022-09-14T16:58:38.467Z,98729.53
2022-09-14T17:01:42.432Z,98723.69
2022-09-14T17:04:43.898Z,98707.97
2022-09-14T17:07:45.285Z,98712.88
2022-09-14T17:10:47.197Z,98702.72
2022-09-14T17:13:48.767Z,98701.59
2022-09-14T17:16:50.322Z,98706.59
2022-09-14T17:19:52.041Z,98711.03
2022-09-14T17:22:53.807Z,98696.94
2022-09-14T17:25:55.733Z,98697.50
2022-09-14T17:28:57.763Z,98692.91
2022-09-14T17:31:59.177Z,98687.75
2022-09-14T17:35:01.799Z,98696.19
2022-09-14T17:38:03.969Z,98685.81
2022-09-14T17:41:08.651Z,98690.75
2022-09-14T17:44:12.687Z,98685.13
2022-09-14T17:47:14.259Z,98678.28
2022-09-14T17:50:16.652Z,98676.84
2022-09-14T17:53:18.189Z,98686.59
2022-09-14T17:56:23.987Z,98689.25
2022-09-14T17:59:25.430Z,98695.50
2022-09-14T18:02:26.888Z,98699.69
2022-09-14T18:05:28.314Z,98692.47
2022-09-14T18:08:29.732Z,98688.44
2022-09-14T18:11:31.770Z,98694.09
2022-09-14T18:14:33.310Z,98695.84
2022-09-14T18:17:34.803Z,98696.81
2022-09-14T18:20:37.735Z,98706.31
2022-09-14T18:23:39.414Z,98705.03
2022-09-14T18:26:41.035Z,98707.81
2022-09-14T18:29:42.425Z,98705.34
2022-09-14T18:32:46.166Z,98709.25
2022-09-14T18:35:47.601Z,98712.78
2022-09-14T18:38:49.635Z,98715.44
2022-09-14T18:41:53.551Z,98708.41
2022-09-14T18:44:56.229Z,98703.78
2022-09-14T18:47:57.743Z,98709.00
2022-09-14T18:51:04.851Z,98712.53
2022-09-14T18:54:07.591Z,98713.03
2022-09-14T18:57:09.399Z,98709.50
2022-09-14T19:00:14.061Z,98702.94
2022-09-14T19:03:19.168Z,98695.53
2022-09-14T19:06:20.654Z,98701.41
2022-09-14T19:09:22.142Z,98709.38
2022-09-14T19:12:24.024Z,98717.78
2022-09-14T19:15:27.752Z,98709.88
2022-09-14T19:18:32.229Z,98714.66
2022-09-14T19:21:34.109Z,98702.81
2022-09-14T19:24:35.513Z,98707.00
2022-09-14T19:27:37.012Z,98703.69
2022-09-14T19:30:42.523Z,98689.88
2022-09-14T19:33:45.644Z,98686.56
2022-09-14T19:36:48.081Z,98691.03
2022-09-14T19:39:49.672Z,98687.25
2022-09-14T19:42:51.759Z,98688.28
2022-09-14T19:45:53.253Z,98687.94
2022-09-14T19:48:54.909Z,98689.41
2022-09-14T19:51:56.521Z,98703.03
2022-09-14T19:54:58.016Z,98711.00
2022-09-14T19:57:59.494Z,98710.28
2022-09-14T20:01:00.908Z,98706.31
2022-09-14T20:04:03.673Z,98706.31
2022-09-14T20:07:07.432Z,98713.16
2022-09-14T20:10:09.925Z,98718.53
2022-09-14T20:13:11.357Z,98711.47
2022-09-14T20:16:19.175Z,98717.59
2022-09-14T20:19:23.355Z,98720.09
2022-09-14T20:22:24.743Z,98716.31
2022-09-14T20:25:26.190Z,98718.41
2022-09-14T20:28:28.361Z,98720.31
2022-09-14T20:31:30.965Z,98711.44
2022-09-14T20:34:32.679Z,98716.75
2022-09-14T20:37:34.082Z,98719.66
2022-09-14T20:40:35.565Z,98717.88
2022-09-14T20:43:39.285Z,98719.00
2022-09-14T20:46:43.825Z,98725.44
2022-09-14T20:49:45.393Z,98723.38
2022-09-14T20:52:46.794Z,98725.44
2022-09-14T20:55:48.234Z,98735.28
2022-09-14T20:58:53.589Z,98744.13
2022-09-14T21:01:55.171Z,98748.81
2022-09-14T21:04:56.917Z,98749.66
2022-09-14T21:07:58.399Z,98755.06
2022-09-14T21:11:12.525Z,98744.44
2022-09-14T21:14:16.610Z,98754.72
2022-09-14T21:17:18.167Z,98753.78
2022-09-14T21:20:19.630Z,98750.66
2022-09-14T21:23:21.021Z,98758.63
2022-09-14T21:26:23.137Z,98758.94
2022-09-14T21:29:24.766Z,98765.09
2022-09-14T21:32:26.189Z,98777.75
2022-09-14T21:35:31.641Z,98770.25
2022-09-14T21:38:35.861Z,98788.19
2022-09-14T21:41:38.787Z,98804.63
2022-09-14T21:44:40.191Z,98807.16
2022-09-14T21:47:41.645Z,98823.66
2022-09-14T21:50:47.252Z,98820.94
2022-09-14T21:53:52.190Z,98830.31
2022-09-14T21:56:54.207Z,98834.56
2022-09-14T21:59:55.612Z,98844.75
2022-09-14T22:02:57.069Z,98842.44
2022-09-14T22:06:02.059Z,98848.66
2022-09-14T22:09:03.718Z,98853.69
2022-09-14T22:12:05.283Z,98852.28
2022-09-14T22:15:07.075Z,98846.53
2022-09-14T22:18:08.476Z,98854.75
2022-09-14T22:21:09.980Z,98841.53
2022-09-14T22:24:14.739Z,98842.31
2022-09-14T22:27:16.191Z,98853.28
2022-09-14T22:30:18.876Z,98855.63
2022-09-14T22:33:24.754Z,98855.66
2022-09-14T22:36:26.895Z,98847.22
2022-09-14T22:39:28.289Z,98844.66
2022-09-14T22:42:31.461Z,98859.28
2022-09-14T22:45:32.855Z,98850.13
2022-09-14T22:48:35.067Z,98847.00
2022-09-14T22:51:36.805Z,98850.56
2022-09-14T22:54:38.204Z,98850.66
2022-09-14T22:57:39.607Z,98843.38
2022-09-14T23:00:42.426Z,98848.69
2022-09-14T23:03:44.132Z,98842.00
2022-09-14T23:06:47.514Z,98853.78
2022-09-14T23:09:49.096Z,98851.22
2022-09-14T23:12:50.556Z,98844.19
2022-09-14T23:15:52.002Z,98842.69
2022-09-14T23:18:55.732Z,98839.22
2022-09-14T23:21:57.161Z,98851.69
2022-09-14T23:24:58.589Z,98859.63
2022-09-14T23:28:00.082Z,98853.56
2022-09-14T23:31:01.785Z,98854.13
2022-09-14T23:34:04.959Z,98843.16
2022-09-14T23:37:06.392Z,98853.78
2022-09-14T23:40:08.471Z,98847.53
2022-09-14T23:43:10.343Z,98840.47
2022-09-14T23:46:12.557Z,98840.13
2022-09-14T23:49:14.261Z,98827.22
2022-09-14T23:52:15.662Z,98832.63
2022-09-14T23:55:17.254Z,98835.41
2022-09-14T23:58:18.680Z,98834.47
